Time;durP1;ratioP1;P1;durP2;ratioP2;P2;SDS_P1;SDS_P2;PMS_P1;PMS_P2;Temp;Humidity;BMP_temperature;BMP_pressure;BME280_temperature;BME280_humidity;BME280_pressure;Samples;Min_cycle;Max_cycle;Signal;HPM_P1;HPM_P2
2022/05/09 00:01:36;;;;;;;12.50;6.97;;;;;;;7.80;73.79;98191.59;10337561;28;20065;-58
2022/05/09 00:06:35;;;;;;;11.98;6.85;;;;;;;7.73;74.16;98191.44;10337038;28;20061;-58
2022/05/09 00:11:34;;;;;;;11.85;6.63;;;;;;;7.73;73.98;98194.03;10336178;28;20057;-58
2022/05/09 00:16:33;;;;;;;11.80;6.82;;;;;;;7.61;75.32;98181.78;10337170;28;20056;-58
2022/05/09 00:21:33;;;;;;;;;;;;;;;7.45;76.07;98178.94;10336701;28;20064;-58
2022/05/09 00:26:32;;;;;;;12.15;6.32;;;;;;;7.33;76.58;98193.28;10336197;28;19955;-58
2022/05/09 00:31:32;;;;;;;10.23;6.22;;;;;;;7.10;77.86;98201.47;10335682;28;20045;-59
2022/05/09 00:36:31;;;;;;;13.18;6.55;;;;;;;6.85;77.66;98205.25;10336492;28;20461;-59
2022/05/09 00:41:40;;;;;;;9.68;5.50;;;;;;;6.61;77.66;98174.66;10336009;28;20065;-58
2022/05/09 00:46:45;;;;;;;9.45;5.72;;;;;;;6.78;77.27;98196.50;10335644;28;20073;-58
2022/05/09 00:51:51;;;;;;;11.63;7.22;;;;;;;6.71;77.89;98197.22;10335942;28;20061;-58
2022/05/09 00:56:56;;;;;;;12.32;6.88;;;;;;;6.69;77.59;98196.31;10335592;28;20072;-58
2022/05/09 01:01:56;;;;;;;11.05;6.40;;;;;;;6.70;77.57;98194.59;10334403;28;20061;-58
2022/05/09 01:06:57;;;;;;;11.55;6.35;;;;;;;6.69;77.87;98192.88;10335146;28;20064;-58
2022/05/09 01:11:56;;;;;;;11.93;6.32;;;;;;;6.57;79.33;98196.91;10333855;28;20064;-58
2022/05/09 01:16:57;;;;;;;13.77;6.88;;;;;;;6.48;79.02;98188.09;10334479;28;20029;-58
2022/05/09 01:21:59;;;;;;;11.88;6.63;;;;;;;6.47;79.07;98200.13;10334258;28;20056;-57
2022/05/09 01:26:58;;;;;;;9.82;6.10;;;;;;;6.50;79.10;98196.75;10333964;28;20076;-57
2022/05/09 01:31:58;;;;;;;10.27;6.25;;;;;;;6.48;78.69;98198.41;10332574;28;20516;-60
2022/05/09 01:37:04;;;;;;;15.50;6.03;;;;;;;6.44;78.42;98194.03;10334599;28;20568;-58
2022/05/09 01:42:06;;;;;;;11.80;6.05;;;;;;;6.40;78.80;98195.69;10333932;28;20244;-58
2022/05/09 01:52:22;;;;;;;10.38;6.15;;;;;;;6.13;80.40;98201.91;10332789;28;20064;-58
2022/05/09 01:57:21;;;;;;;8.02;4.75;;;;;;;5.79;81.06;98194.19;10332845;28;20033;-58
2022/05/09 02:02:21;;;;;;;11.07;5.60;;;;;;;5.92;80.71;98202.28;10332406;28;20034;-58
2022/05/09 02:07:23;;;;;;;;;;;;;;;5.98;80.07;98210.16;10333178;28;20145;-58
2022/05/09 02:12:21;;;;;;;7.18;4.90;;;;;;;5.96;79.50;98209.25;10331870;28;20363;-58
2022/05/09 02:17:20;;;;;;;8.57;5.03;;;;;;;5.93;80.01;98213.44;10331699;28;20508;-58
2022/05/09 02:22:19;;;;;;;8.95;5.30;;;;;;;5.93;80.04;98216.91;10332478;28;20133;-58
2022/05/09 02:27:19;;;;;;;13.98;6.20;;;;;;;5.76;80.85;98202.72;10331708;28;20040;-58
2022/05/09 02:32:18;;;;;;;12.82;7.55;;;;;;;5.74;81.96;98219.84;10331852;28;20073;-58
2022/05/09 02:37:18;;;;;;;13.23;6.75;;;;;;;5.76;81.72;98216.47;10331375;28;20109;-58
2022/05/09 02:42:16;;;;;;;13.05;6.82;;;;;;;5.78;81.59;98216.50;10332832;28;20072;-58
2022/05/09 02:47:17;;;;;;;11.52;6.75;;;;;;;5.70;81.81;98221.47;10331380;28;20085;-58
2022/05/09 02:52:16;;;;;;;14.98;6.93;;;;;;;5.57;82.19;98215.97;10330917;28;20080;-58
2022/05/09 02:57:15;;;;;;;16.88;8.25;;;;;;;5.56;82.23;98222.81;10332142;28;20116;-58
2022/05/09 03:02:14;;;;;;;14.23;8.25;;;;;;;5.43;81.76;98195.00;10331043;28;20116;-58
2022/05/09 03:07:16;;;;;;;15.35;9.07;;;;;;;5.50;81.65;98218.38;10331260;28;20033;-58
2022/05/09 03:12:19;;;;;;;16.25;8.20;;;;;;;5.57;81.55;98234.00;10331221;28;20065;-58
2022/05/09 03:17:18;;;;;;;13.45;8.45;;;;;;;5.56;81.42;98227.97;10330723;28;20068;-58
2022/05/09 03:22:17;;;;;;;15.05;7.70;;;;;;;5.57;81.52;98237.44;10330981;28;20064;-58
2022/05/09 03:27:16;;;;;;;15.57;7.70;;;;;;;5.58;81.63;98234.03;10334569;28;20120;-58
2022/05/09 03:32:15;;;;;;;13.57;7.07;;;;;;;5.61;82.11;98230.66;10338189;28;20045;-58
2022/05/09 03:37:14;;;;;;;17.08;7.57;;;;;;;5.66;82.04;98236.81;10338291;28;20068;-59
2022/05/09 03:42:13;;;;;;;14.40;7.43;;;;;;;5.69;81.59;98240.31;10305233;28;20116;-58
2022/05/09 03:47:12;;;;;;;17.58;8.02;;;;;;;5.75;82.43;98244.78;10296079;28;20124;-59
2022/05/09 03:52:11;;;;;;;;;;;;;;;5.61;83.36;98251.28;10297472;28;20073;-59
2022/05/09 03:57:10;;;;;;;19.75;9.45;;;;;;;5.50;82.96;98243.25;10297378;28;20299;-59
2022/05/09 04:02:10;;;;;;;14.73;6.80;;;;;;;5.45;82.97;98261.13;10296839;28;20061;-59
2022/05/09 04:07:09;;;;;;;11.05;6.40;;;;;;;5.38;82.57;98260.94;10295770;28;20600;-58
2022/05/09 04:12:08;;;;;;;12.48;6.45;;;;;;;5.43;82.51;98265.38;10296476;28;20072;-59
2022/05/09 04:17:10;;;;;;;12.77;6.97;;;;;;;5.53;82.19;98269.97;10296639;28;20061;-59
2022/05/09 04:22:09;;;;;;;12.35;6.32;;;;;;;5.42;82.42;98252.47;10295779;28;20088;-59
2022/05/09 04:27:08;;;;;;;15.02;6.97;;;;;;;5.31;82.94;98252.16;10296414;28;20076;-59
2022/05/09 04:32:08;;;;;;;14.32;6.68;;;;;;;5.53;82.36;98280.25;10295178;28;20061;-59
2022/05/09 04:37:07;;;;;;;14.48;6.15;;;;;;;5.69;82.55;98272.94;10295227;28;20057;-59
2022/05/09 04:42:07;;;;;;;14.45;7.40;;;;;;;5.94;81.97;98277.88;10294367;28;20069;-59
2022/05/09 04:47:07;;;;;;;12.07;7.47;;;;;;;6.12;82.55;98271.47;10284635;28;20098;-59
2022/05/09 04:52:06;;;;;;;15.70;7.60;;;;;;;6.35;82.25;98284.91;10294500;28;20149;-59
2022/05/09 04:57:05;;;;;;;15.20;7.90;;;;;;;6.50;81.20;98263.78;10291527;28;20061;-59
2022/05/09 05:02:05;;;;;;;14.90;8.43;;;;;;;6.80;81.08;98282.53;10294207;28;20436;-59
2022/05/09 05:07:04;;;;;;;15.15;8.23;;;;;;;7.02;80.86;98280.41;10294092;28;20065;-59
2022/05/09 05:12:04;;;;;;;18.55;9.38;;;;;;;7.30;80.29;98278.41;10294257;28;20064;-59
2022/05/09 05:17:03;;;;;;;19.55;9.70;;;;;;;7.45;78.75;98278.75;10288358;28;20061;-59
2022/05/09 05:22:03;;;;;;;;;;;;;;;7.68;78.47;98283.50;10288077;28;20065;-59
2022/05/09 05:27:05;;;;;;;16.42;9.38;;;;;;;8.00;78.20;98277.19;10291110;28;19959;-59
2022/05/09 05:32:20;;;;;;;16.13;7.97;;;;;;;8.15;77.63;98291.22;10292605;28;20168;-59
2022/05/09 05:37:19;;;;;;;12.65;7.35;;;;;;;8.21;77.88;98283.59;10292978;28;20057;-59
2022/05/09 05:42:19;;;;;;;12.25;7.20;;;;;;;8.54;77.34;98284.97;10290511;28;20123;-59
2022/05/09 05:47:19;;;;;;;17.58;8.48;;;;;;;8.96;76.20;98295.09;10289366;28;20153;-59
2022/05/09 05:52:18;;;;;;;15.52;7.80;;;;;;;9.30;75.28;98288.69;10290789;28;20065;-59
2022/05/09 05:57:26;;;;;;;12.95;8.02;;;;;;;9.62;74.59;98283.00;10291710;28;20022;-59
2022/05/09 06:02:26;;;;;;;13.50;7.72;;;;;;;9.97;73.63;98287.69;10292775;28;20468;-59
2022/05/09 06:07:25;;;;;;;15.68;7.70;;;;;;;10.32;71.11;98281.97;10292235;28;20084;-59
2022/05/09 06:12:25;;;;;;;14.13;8.60;;;;;;;10.47;71.02;98266.53;10291394;28;20397;-59
2022/05/09 06:17:24;;;;;;;13.30;9.18;;;;;;;10.86;69.15;98290.16;10289794;28;20072;-59
2022/05/09 06:22:23;;;;;;;15.27;7.55;;;;;;;11.04;67.44;98296.34;10290618;28;20125;-59
2022/05/09 06:27:21;;;;;;;12.27;8.25;;;;;;;11.39;66.94;98297.41;10291054;28;20041;-60
2022/05/09 06:32:24;;;;;;;14.73;7.53;;;;;;;11.53;67.02;98290.53;10291002;28;20557;-58
2022/05/09 06:37:25;;;;;;;10.70;6.55;;;;;;;11.63;65.76;98288.81;10286568;28;20084;-58
2022/05/09 06:42:24;;;;;;;9.00;5.90;;;;;;;11.88;65.78;98284.56;10291565;28;20065;-58
2022/05/09 06:47:23;;;;;;;9.90;6.35;;;;;;;12.06;64.23;98282.00;10290244;28;20052;-58
2022/05/09 06:52:22;;;;;;;10.23;5.97;;;;;;;12.32;63.55;98282.91;10290089;28;20057;-58
2022/05/09 06:57:21;;;;;;;10.82;7.05;;;;;;;12.73;63.39;98286.38;10290242;28;20109;-58
2022/05/09 07:02:20;;;;;;;9.95;5.28;;;;;;;13.06;63.42;98287.19;10292771;28;20076;-59
2022/05/09 07:07:19;;;;;;;10.00;5.20;;;;;;;13.32;61.31;98287.09;10297544;28;20034;-59
2022/05/09 07:12:18;;;;;;;11.40;5.88;;;;;;;13.58;61.27;98278.34;10297434;28;20133;-59
2022/05/09 07:17:17;;;;;;;7.95;5.40;;;;;;;13.86;60.42;98258.19;10298145;28;20113;-59
2022/05/09 07:22:16;;;;;;;9.27;5.35;;;;;;;14.17;57.92;98273.66;10297468;28;20036;-59
2022/05/09 07:27:15;;;;;;;7.82;4.28;;;;;;;14.29;55.31;98273.56;10297176;28;20042;-59
2022/05/09 07:32:14;;;;;;;8.23;4.75;;;;;;;14.67;54.95;98279.38;10299500;28;20492;-59
2022/05/09 07:37:13;;;;;;;14.52;4.82;;;;;;;15.01;54.35;98272.97;10283728;28;20404;-59
2022/05/09 07:42:13;;;;;;;8.95;4.72;;;;;;;15.46;53.95;98272.47;10287550;28;20034;-59
2022/05/09 07:47:12;;;;;;;5.65;3.20;;;;;;;15.80;50.09;98269.41;10284185;28;20057;-59
2022/05/09 07:52:11;;;;;;;;;;;;;;;16.04;48.21;98274.31;10296816;28;20034;-59
2022/05/09 07:57:10;;;;;;;9.27;4.40;;;;;;;16.29;48.16;98268.69;10290279;28;19949;-59
2022/05/09 08:02:09;;;;;;;8.00;3.63;;;;;;;16.50;47.23;98273.59;10293541;28;20269;-59
2022/05/09 08:07:08;;;;;;;4.78;3.30;;;;;;;16.68;46.68;98272.41;10284092;28;20615;-59
2022/05/09 08:12:08;;;;;;;10.32;4.00;;;;;;;16.83;45.24;98276.56;10274826;28;20061;-59
2022/05/09 08:17:09;;;;;;;4.15;2.75;;;;;;;16.91;44.63;98277.28;10267643;28;20129;-59
2022/05/09 08:22:08;;;;;;;4.95;2.92;;;;;;;16.86;44.92;98239.81;10297672;28;20084;-59
2022/05/09 08:27:07;;;;;;;;;;;;;;;17.30;44.85;98274.78;10296138;28;20040;-59
2022/05/09 08:32:06;;;;;;;8.25;3.95;;;;;;;17.52;46.15;98269.13;10307403;28;19921;-59
2022/05/09 08:37:05;;;;;;;4.50;2.92;;;;;;;17.87;43.32;98271.03;10332090;28;20479;-57
2022/05/09 08:42:07;;;;;;;7.43;2.47;;;;;;;18.13;40.85;98269.59;10290523;28;20513;-57
2022/05/09 08:47:15;;;;;;;5.18;2.40;;;;;;;18.02;37.28;98271.59;10292975;28;20065;-57
2022/05/09 08:52:24;;;;;;;6.53;2.92;;;;;;;18.27;37.27;98263.97;10293925;28;20073;-57
2022/05/09 08:57:29;;;;;;;3.35;2.40;;;;;;;18.47;37.32;98261.72;10300071;28;20061;-57
2022/05/09 09:02:43;;;;;;;5.07;2.85;;;;;;;18.46;36.76;98262.66;10306706;28;20492;-57
2022/05/09 09:07:51;;;;;;;4.90;3.00;;;;;;;18.68;38.66;98263.00;10306140;28;20626;-57
2022/05/09 09:13:19;;;;;;;6.32;2.67;;;;;;;19.04;37.98;98255.03;10327673;28;20076;-57
2022/05/09 09:18:50;;;;;;;5.00;2.75;;;;;;;19.11;36.93;98247.84;10292979;28;20177;-57
2022/05/09 09:24:21;;;;;;;4.28;2.58;;;;;;;19.51;37.53;98246.72;10316808;28;20067;-57
2022/05/09 09:29:23;;;;;;;4.65;2.60;;;;;;;19.58;36.33;98245.66;10295334;28;20092;-57
2022/05/09 09:34:32;;;;;;;5.45;3.58;;;;;;;19.58;36.23;98249.16;10292749;28;20076;-57
2022/05/09 09:39:31;;;;;;;7.22;4.05;;;;;;;19.82;35.04;98246.72;10292165;28;20049;-57
2022/05/09 09:44:34;;;;;;;8.60;4.80;;;;;;;20.21;36.36;98244.59;10292615;28;20044;-57
2022/05/09 09:49:38;;;;;;;6.63;2.40;;;;;;;20.07;33.41;98239.78;10291946;28;20469;-57
2022/05/09 09:54:38;;;;;;;4.45;2.60;;;;;;;20.08;33.97;98228.31;10287024;28;20076;-57
2022/05/09 09:59:38;;;;;;;4.70;2.85;;;;;;;20.28;33.79;98232.94;10292072;28;20153;-57
2022/05/09 10:04:37;;;;;;;4.75;2.47;;;;;;;20.55;34.67;98230.34;10291854;28;20061;-58
2022/05/09 10:09:41;;;;;;;5.18;2.13;;;;;;;20.84;33.39;98231.09;10306130;28;20045;-58
2022/05/09 10:14:41;;;;;;;4.63;2.28;;;;;;;20.79;32.94;98215.44;10332707;28;20071;-59
2022/05/09 10:19:40;;;;;;;4.07;2.03;;;;;;;20.99;33.39;98222.66;10298720;28;20068;-58
2022/05/09 10:24:48;;;;;;;5.07;2.17;;;;;;;20.87;32.10;98223.09;10291497;28;20602;-57
2022/05/09 10:29:54;;;;;;;4.03;2.00;;;;;;;20.46;31.23;98223.59;10291380;28;20081;-58
2022/05/09 10:35:01;;;;;;;4.47;2.40;;;;;;;20.45;30.98;98203.41;10289932;28;20069;-58
2022/05/09 10:40:05;;;;;;;4.53;2.00;;;;;;;20.38;31.11;98214.19;10290795;28;20504;-59
2022/05/09 10:45:06;;;;;;;4.35;2.00;;;;;;;20.66;30.75;98208.88;10290998;28;20053;-59
2022/05/09 10:50:17;;;;;;;4.30;1.70;;;;;;;20.78;28.49;98208.44;10290496;28;20081;-57
2022/05/09 10:55:20;;;;;;;4.15;2.35;;;;;;;20.91;29.21;98220.31;10290438;28;20090;-56
2022/05/09 11:00:25;;;;;;;3.55;1.70;;;;;;;20.88;27.46;98201.94;10291333;28;20136;-57
2022/05/09 11:05:28;;;;;;;2.60;1.52;;;;;;;21.07;26.76;98199.47;10290070;28;20053;-57
2022/05/09 11:10:30;;;;;;;3.25;1.80;;;;;;;21.16;27.12;98193.00;10289805;28;20072;-57
2022/05/09 11:15:50;;;;;;;1.77;1.60;;;;;;;20.93;27.70;98194.69;10289440;28;20065;-57
2022/05/09 11:21:19;;;;;;;3.78;1.83;;;;;;;21.11;27.24;98195.81;10250330;28;20062;-57
2022/05/09 11:26:44;;;;;;;2.40;1.80;;;;;;;21.20;27.28;98186.72;10281060;28;20084;-57
2022/05/09 11:31:48;;;;;;;2.30;1.58;;;;;;;21.27;27.42;98179.47;10279514;28;20084;-57
2022/05/09 11:36:47;;;;;;;4.93;3.08;;;;;;;21.62;26.84;98177.25;10290241;28;20061;-57
2022/05/09 11:48:08;;;;;;;2.13;1.58;;;;;;;21.99;25.92;98167.88;10289797;28;20145;-57
2022/05/09 11:53:08;;;;;;;5.73;2.10;;;;;;;21.68;26.42;98158.50;10296265;28;20077;-57
2022/05/09 11:58:07;;;;;;;6.60;2.00;;;;;;;21.58;25.77;98167.72;10296671;28;20504;-57
2022/05/09 12:03:13;;;;;;;6.43;3.50;;;;;;;21.65;25.46;98150.72;10296319;28;20523;-57
2022/05/09 12:08:18;;;;;;;3.90;1.83;;;;;;;21.92;26.43;98157.56;10296358;28;20074;-57
2022/05/09 12:13:20;;;;;;;2.05;1.80;;;;;;;22.15;26.32;98143.41;10296726;28;20065;-58
2022/05/09 12:18:31;;;;;;;4.35;1.70;;;;;;;22.30;25.73;98135.78;10295921;28;20053;-58
2022/05/09 12:23:39;;;;;;;5.07;1.90;;;;;;;22.26;26.37;98142.97;10296675;28;20065;-58
2022/05/09 12:28:40;;;;;;;4.70;1.60;;;;;;;22.32;25.94;98129.50;10295510;28;20077;-58
2022/05/09 12:33:45;;;;;;;3.03;1.70;;;;;;;22.27;24.90;98128.84;10295148;28;20077;-58
2022/05/09 12:38:49;;;;;;;2.75;1.88;;;;;;;21.94;25.24;98126.66;10294768;28;20057;-58
2022/05/09 12:43:52;;;;;;;4.20;2.03;;;;;;;21.90;25.11;98122.41;10295385;28;20069;-58
2022/05/09 12:48:55;;;;;;;4.47;2.08;;;;;;;21.94;24.72;98120.47;10294673;28;20072;-58
2022/05/09 12:53:54;;;;;;;2.40;1.60;;;;;;;22.06;24.69;98111.22;10294764;28;20465;-58
2022/05/09 12:59:02;;;;;;;4.28;1.70;;;;;;;22.16;24.31;98112.56;10293983;28;20460;-58
2022/05/09 13:04:05;;;;;;;2.92;1.83;;;;;;;22.22;22.17;98088.50;10294269;28;20061;-58
2022/05/09 13:09:19;;;;;;;4.65;1.80;;;;;;;22.24;21.79;98089.28;10304599;28;20586;-58
2022/05/09 13:14:27;;;;;;;2.45;1.70;;;;;;;22.32;21.21;98087.19;10334301;28;20061;-58
2022/05/09 13:19:27;;;;;;;3.30;1.60;;;;;;;22.37;22.50;98084.34;10304057;28;20068;-58
2022/05/09 13:24:29;;;;;;;2.92;1.98;;;;;;;22.33;23.50;98080.97;10293037;28;20061;-58
2022/05/09 13:29:38;;;;;;;6.45;1.98;;;;;;;22.34;22.67;98074.75;10292440;28;20129;-58
2022/05/09 13:34:45;;;;;;;3.90;1.80;;;;;;;22.54;23.50;98059.78;10293843;28;20081;-58
2022/05/09 13:39:47;;;;;;;5.80;2.15;;;;;;;22.55;25.17;98066.78;10321247;28;20464;-58
2022/05/09 13:44:47;;;;;;;2.72;1.70;;;;;;;22.48;24.30;98054.78;10326781;28;20079;-59
2022/05/09 13:49:49;;;;;;;4.15;1.90;;;;;;;22.62;24.50;98062.94;10333197;28;20551;-56
2022/05/09 13:54:51;;;;;;;3.13;1.98;;;;;;;22.92;23.03;98049.28;10292727;28;20080;-56
2022/05/09 13:59:54;;;;;;;3.90;2.00;;;;;;;22.91;23.67;98026.41;10291291;28;20584;-56
2022/05/09 14:05:09;;;;;;;6.03;1.70;;;;;;;22.98;24.00;98041.91;10298594;28;20523;-56
2022/05/09 14:10:24;;;;;;;3.90;1.88;;;;;;;23.03;24.74;98044.34;10320221;28;20065;-56
2022/05/09 14:15:28;;;;;;;2.22;1.73;;;;;;;22.80;23.89;98040.13;10330009;28;20069;-56
2022/05/09 14:20:34;;;;;;;5.75;1.88;;;;;;;23.09;24.59;98041.44;10292038;28;20065;-56
2022/05/09 14:30:52;;;;;;;4.53;1.90;;;;;;;22.85;25.19;98021.38;10290551;28;20081;-57
2022/05/09 14:35:52;;;;;;;2.72;2.00;;;;;;;22.76;25.04;98030.59;10290687;28;20117;-57
2022/05/09 14:40:51;;;;;;;4.18;1.70;;;;;;;22.30;25.45;98035.31;10290956;28;20077;-57
2022/05/09 14:46:03;;;;;;;1.70;1.58;;;;;;;22.40;25.77;98033.97;10291655;28;20077;-57
2022/05/09 14:51:02;;;;;;;2.90;1.73;;;;;;;22.26;26.26;98025.78;10290265;28;20066;-57
2022/05/09 15:01:31;;;;;;;4.10;2.00;;;;;;;21.96;28.73;98026.16;10290808;28;20480;-57
2022/05/09 15:06:29;;;;;;;4.18;1.92;;;;;;;22.06;27.59;98024.00;10290202;28;20417;-57
2022/05/09 15:11:31;;;;;;;5.22;2.30;;;;;;;21.81;27.90;98027.66;10320972;28;20112;-57
2022/05/09 15:16:35;;;;;;;2.75;1.63;;;;;;;21.97;27.84;98019.97;10323447;28;20061;-57
2022/05/09 15:21:34;;;;;;;4.40;2.00;;;;;;;21.76;27.71;98024.38;10306393;28;20081;-57
2022/05/09 15:26:36;;;;;;;5.30;1.98;;;;;;;21.75;27.95;98004.13;10298906;28;20056;-57
2022/05/09 15:31:40;;;;;;;4.25;2.28;;;;;;;21.95;28.19;98009.44;10297440;28;20088;-57
2022/05/09 15:36:39;;;;;;;4.13;2.08;;;;;;;21.75;27.92;98010.28;10297106;28;20066;-57
2022/05/09 15:41:39;;;;;;;4.25;2.00;;;;;;;21.70;28.13;98008.75;10297765;28;20062;-57
2022/05/09 15:46:40;;;;;;;4.22;1.88;;;;;;;21.58;28.54;98009.28;10296923;28;20068;-57
2022/05/09 15:51:39;;;;;;;2.95;2.20;;;;;;;21.40;29.36;98016.16;10297292;28;20469;-57
2022/05/09 15:56:44;;;;;;;5.28;2.22;;;;;;;21.33;29.02;97999.72;10296897;28;20504;-57
2022/05/09 16:01:43;;;;;;;5.82;2.00;;;;;;;21.07;29.34;97998.09;10296454;28;20496;-57
2022/05/09 16:12:02;;;;;;;4.55;1.80;;;;;;;21.11;30.54;98011.09;10295818;28;20057;-57
2022/05/09 16:17:02;;;;;;;4.55;2.15;;;;;;;21.05;30.52;98011.31;10296381;28;20061;-57
2022/05/09 16:22:04;;;;;;;3.47;2.00;;;;;;;20.99;30.84;98016.88;10295171;28;20060;-57
2022/05/09 16:27:04;;;;;;;5.70;2.30;;;;;;;20.79;31.04;98011.50;10295298;28;20068;-57
2022/05/09 16:32:03;;;;;;;5.35;2.45;;;;;;;20.74;31.68;98018.72;10292975;28;20084;-57
2022/05/09 16:37:06;;;;;;;3.95;2.00;;;;;;;20.64;32.16;98026.13;10293962;28;20074;-57
2022/05/09 16:42:18;;;;;;;5.13;2.40;;;;;;;20.42;32.33;98024.28;10294785;28;20057;-57
2022/05/09 16:47:17;;;;;;;6.93;3.08;;;;;;;20.20;32.94;98032.06;10294807;28;20064;-57
2022/05/09 16:52:16;;;;;;;8.90;4.07;;;;;;;20.01;32.95;98041.53;10294705;28;20108;-57
2022/05/09 16:57:17;;;;;;;6.25;2.60;;;;;;;19.87;33.22;98034.94;10294369;28;20026;-57
2022/05/09 17:02:19;;;;;;;7.57;3.00;;;;;;;19.80;33.30;98049.22;10294347;28;20069;-58
2022/05/09 17:07:18;;;;;;;5.35;2.38;;;;;;;19.83;33.70;98048.28;10293835;28;20061;-57
2022/05/09 17:12:23;;;;;;;5.80;2.97;;;;;;;19.74;34.04;98049.44;10331367;28;20492;-58
2022/05/09 17:17:38;;;;;;;7.80;3.35;;;;;;;19.62;34.34;98065.63;10319942;28;20050;-58
2022/05/09 17:22:37;;;;;;;7.28;3.63;;;;;;;19.44;34.63;98062.66;10293273;28;20562;-58
2022/05/09 17:27:37;;;;;;;28.05;13.60;;;;;;;19.10;34.30;98060.22;10291563;28;20439;-58
2022/05/09 17:32:37;;;;;;;8.32;4.15;;;;;;;19.03;34.18;98066.56;10293250;28;20073;-58
2022/05/09 17:37:36;;;;;;;21.70;15.00;;;;;;;18.92;34.65;98074.75;10292616;28;20060;-58
2022/05/09 17:42:35;;;;;;;63.13;46.50;;;;;;;18.74;36.13;98081.44;10292455;28;20035;-58
2022/05/09 17:47:35;;;;;;;;;;;;;;;18.48;37.10;98084.78;10291892;28;20033;-58
2022/05/09 17:52:34;;;;;;;17.17;12.55;;;;;;;18.16;38.17;98086.50;10292043;28;19960;-58
2022/05/09 17:57:36;;;;;;;61.20;41.08;;;;;;;17.85;38.57;98078.56;10291022;28;20076;-58
2022/05/09 18:02:36;;;;;;;20.02;15.43;;;;;;;17.61;39.32;98094.84;10291477;28;20065;-58
2022/05/09 18:07:35;;;;;;;18.70;14.02;;;;;;;17.29;39.97;98096.47;10291773;28;20050;-58
2022/05/09 18:12:40;;;;;;;23.98;18.90;;;;;;;17.01;40.68;98115.44;10291120;28;20068;-58
2022/05/09 18:17:45;;;;;;;11.88;8.23;;;;;;;16.75;41.64;98125.53;10291463;28;20045;-58
2022/05/09 18:22:47;;;;;;;8.20;4.72;;;;;;;16.50;42.07;98123.41;10292065;28;20073;-58
2022/05/09 18:27:46;;;;;;;12.32;6.60;;;;;;;16.27;42.96;98123.81;10291026;28;20053;-58
2022/05/09 18:32:53;;;;;;;10.63;6.32;;;;;;;16.03;43.45;98128.59;10291374;28;20085;-57
2022/05/09 18:37:57;;;;;;;11.82;7.53;;;;;;;15.84;44.19;98142.88;10291672;28;20180;-59
2022/05/09 18:43:00;;;;;;;11.13;7.18;;;;;;;15.61;44.87;98138.81;10291599;28;20073;-59
2022/05/09 18:47:59;;;;;;;13.63;6.82;;;;;;;15.43;45.14;98152.16;10290920;28;20073;-59
2022/05/09 18:53:01;;;;;;;;;;;;;;;15.20;46.42;98155.09;10291553;28;20057;-59
2022/05/09 18:58:00;;;;;;;6.25;3.67;;;;;;;14.90;48.05;98161.59;10294136;28;19947;-58
2022/05/09 19:03:00;;;;;;;11.38;3.92;;;;;;;14.59;48.78;98147.09;10296387;28;20100;-58
2022/05/09 19:08:16;;;;;;;10.25;3.72;;;;;;;14.47;48.59;98162.88;10300952;28;20064;-59
2022/05/09 19:13:18;;;;;;;6.07;3.25;;;;;;;14.29;48.67;98171.75;10339174;28;20065;-59
2022/05/09 19:18:20;;;;;;;7.47;3.00;;;;;;;14.11;48.68;98175.41;10317124;28;20517;-59
2022/05/09 19:23:18;;;;;;;6.88;2.88;;;;;;;13.90;50.15;98180.78;10297454;28;20854;-59
2022/05/09 19:28:21;;;;;;;5.22;2.80;;;;;;;13.75;50.60;98181.78;10298100;28;20485;-60
2022/05/09 19:33:28;;;;;;;8.25;3.83;;;;;;;13.60;51.54;98187.94;10296904;28;20096;-59
2022/05/09 19:38:27;;;;;;;8.15;3.70;;;;;;;13.43;52.59;98187.16;10297892;28;20053;-59
2022/05/09 19:43:28;;;;;;;7.85;4.05;;;;;;;13.27;53.14;98186.34;10297811;28;20068;-59
2022/05/09 19:48:30;;;;;;;9.27;4.28;;;;;;;13.11;53.61;98193.38;10296703;28;20061;-58
2022/05/09 19:58:46;;;;;;;9.88;4.70;;;;;;;12.75;53.93;98200.44;10297371;28;20062;-57
2022/05/09 20:03:46;;;;;;;157.57;82.78;;;;;;;12.62;54.29;98198.72;10296919;28;20076;-58
2022/05/09 20:08:45;;;;;;;23.63;12.65;;;;;;;12.56;54.39;98197.03;10294800;28;20513;-58
2022/05/09 20:13:44;;;;;;;45.42;25.17;;;;;;;12.46;54.51;98198.78;10296226;28;20061;-58
2022/05/09 20:18:43;;;;;;;45.10;24.30;;;;;;;12.38;54.83;98204.84;10295741;28;20062;-58
2022/05/09 20:23:45;;;;;;;39.83;22.00;;;;;;;12.14;55.53;98183.16;10295781;28;20092;-58
2022/05/09 20:34:01;;;;;;;13.15;5.75;;;;;;;12.14;55.67;98216.13;10295268;28;20073;-58
2022/05/09 20:39:07;;;;;;;7.25;3.50;;;;;;;12.05;54.72;98206.56;10295154;28;20045;-58
2022/05/09 20:44:09;;;;;;;13.20;6.13;;;;;;;11.96;55.41;98207.41;10296254;28;20061;-58
2022/05/09 20:49:15;;;;;;;10.40;6.60;;;;;;;11.81;57.50;98208.28;10295580;28;20352;-58
2022/05/09 20:54:17;;;;;;;13.73;7.32;;;;;;;11.69;57.93;98208.28;10294531;28;20081;-58
2022/05/09 20:59:16;;;;;;;9.90;5.30;;;;;;;11.58;58.19;98213.44;10293542;28;20442;-59
2022/05/09 21:04:15;;;;;;;;;;;;;;;11.46;58.46;98219.47;10295687;28;20408;-60
2022/05/09 21:09:18;;;;;;;5.00;3.22;;;;;;;11.36;59.10;98216.81;10306378;28;19913;-59
2022/05/09 21:14:17;;;;;;;8.00;3.55;;;;;;;11.23;57.97;98216.78;10334334;28;20069;-60
2022/05/09 21:19:16;;;;;;;8.70;4.93;;;;;;;11.15;59.13;98220.22;10304198;28;20026;-59
2022/05/09 21:24:22;;;;;;;17.40;9.88;;;;;;;11.10;60.02;98224.53;10293380;28;20125;-59
2022/05/09 21:29:22;;;;;;;18.50;10.60;;;;;;;11.00;60.03;98224.47;10293473;28;20085;-59
2022/05/09 21:34:21;;;;;;;12.30;6.60;;;;;;;10.84;61.02;98212.25;10293594;28;20460;-59
2022/05/09 21:44:41;;;;;;;19.33;11.70;;;;;;;10.69;64.25;98228.63;10292576;28;20073;-59
2022/05/09 21:49:40;;;;;;;14.95;8.45;;;;;;;10.65;65.12;98233.78;10292518;28;20866;-59
2022/05/09 21:54:41;;;;;;;16.58;7.60;;;;;;;10.55;65.66;98238.03;10292249;28;20587;-59
2022/05/09 21:59:40;;;;;;;12.32;7.97;;;;;;;10.48;66.49;98241.44;10292089;28;20064;-59
2022/05/09 22:04:39;;;;;;;18.85;9.98;;;;;;;10.38;66.20;98230.16;10292320;28;20061;-59
2022/05/09 22:09:45;;;;;;;17.17;8.80;;;;;;;10.20;66.84;98220.47;10291365;28;20088;-59
2022/05/09 22:14:46;;;;;;;13.20;7.22;;;;;;;10.14;67.69;98235.97;10288843;28;20057;-59
2022/05/09 22:19:44;;;;;;;11.30;6.70;;;;;;;9.91;67.79;98215.03;10288636;28;20501;-59
2022/05/09 22:24:47;;;;;;;13.45;7.65;;;;;;;9.93;68.19;98241.84;10287612;28;20500;-59
2022/05/09 22:29:46;;;;;;;15.15;7.75;;;;;;;9.78;68.15;98230.47;10289691;28;20085;-59
2022/05/09 22:34:46;;;;;;;;;;;;;;;9.76;68.36;98237.38;10291387;28;20909;-60
2022/05/09 22:39:48;;;;;;;14.85;7.10;;;;;;;9.71;68.49;98233.00;10290610;28;19949;-59
2022/05/09 22:44:47;;;;;;;16.67;7.57;;;;;;;9.57;70.18;98222.50;10290889;28;20072;-59
2022/05/09 22:49:46;;;;;;;;;;;;;;;9.56;70.19;98231.13;10291510;28;20065;-59
2022/05/09 22:54:45;;;;;;;16.40;8.70;;;;;;;9.50;70.68;98228.47;10290433;28;20016;-59
2022/05/09 22:59:45;;;;;;;17.90;9.95;;;;;;;9.31;71.13;98215.31;10290964;28;20050;-59
2022/05/09 23:04:44;;;;;;;13.40;8.38;;;;;;;9.39;71.36;98219.69;10290716;28;20065;-59
2022/05/09 23:09:44;;;;;;;13.38;6.40;;;;;;;9.24;72.35;98223.81;10306553;28;20053;-59
2022/05/09 23:14:47;;;;;;;12.80;6.45;;;;;;;9.05;72.53;98195.97;10330278;28;20068;-59
2022/05/09 23:19:46;;;;;;;12.93;7.43;;;;;;;9.05;72.33;98216.69;10298216;28;20065;-59
2022/05/09 23:24:45;;;;;;;14.15;7.95;;;;;;;9.01;72.04;98214.91;10289988;28;20104;-59
2022/05/09 23:29:44;;;;;;;12.32;7.75;;;;;;;8.78;71.83;98175.78;10289630;28;20619;-59
2022/05/09 23:34:47;;;;;;;14.07;7.00;;;;;;;8.93;72.01;98212.22;10290547;28;20058;-59
2022/05/09 23:39:47;;;;;;;9.60;5.47;;;;;;;8.90;71.70;98210.47;10289646;28;20053;-59
2022/05/09 23:44:51;;;;;;;12.27;5.78;;;;;;;8.84;71.94;98215.56;10293972;28;20072;-59
2022/05/09 23:49:52;;;;;;;11.90;6.88;;;;;;;8.71;72.79;98214.50;10297269;28;20065;-59
2022/05/09 23:54:51;;;;;;;10.55;6.13;;;;;;;8.68;73.32;98201.53;10296636;28;20061;-59
2022/05/09 23:59:50;;;;;;;11.88;5.80;;;;;;;8.61;73.78;98204.03;10296538;28;20049;-59
